Sunday, December 17, 2017, 2:44 PM EST
Back to Local

KDSV, Dansville Municipal Airport

Location: Dansville, NY, United States Lat: 42.567
Local Time: 2:44 PM EST (19:44 GMT) Lon: -77.717
Time Zone: US/Eastern Elev: 662 ft

Show me the last for .
Show Decoded

2017-12-17 13:54 METAR KDSV 171854Z AUTO 32004KT 10SM FEW019 BKN050 M05/M09 A3020 RMK AO2 SLP247
                 T10501089 =
2017-12-17 13:36 METAR KDSV 171836Z AUTO 31003KT 10SM SCT019 OVC050 M04/M09 A3021 RMK AO2
                 T10441089 =
2017-12-17 12:54 METAR KDSV 171754Z AUTO 00000KT 10SM BKN019 OVC050 M04/M09 A3022 RMK AO2 SLP252
                 T10441089 11044 21067 58023 =
2017-12-17 11:54 METAR KDSV 171654Z AUTO 00000KT 10SM OVC019 M06/M10 A3024 RMK AO2 SLP261
                 T10561100 =
2017-12-17 10:54 METAR KDSV 171554Z AUTO 32003KT 10SM OVC016 M06/M10 A3029 RMK AO2 SLP277
                 T10611100 =
2017-12-17 09:54 METAR KDSV 171454Z AUTO 00000KT 10SM OVC016 M06/M10 A3029 RMK AO2 SLP276
                 T10611100 53006 =
2017-12-17 08:54 METAR KDSV 171354Z AUTO 00000KT 10SM OVC017 M07/M10 A3028 RMK AO2 SLP273
                 T10671100 =
2017-12-17 07:54 METAR KDSV 171254Z AUTO 00000KT 10SM OVC019 M07/M11 A3027 RMK AO2 SLP271
                 T10671106 =
2017-12-17 06:54 METAR KDSV 171154Z AUTO 34004KT 10SM OVC020 M07/M11 A3027 RMK AO2 SLP270
                 T10671106 11056 21067 53009 =
2017-12-17 05:54 METAR KDSV 171054Z AUTO 00000KT 10SM OVC021 M06/M09 A3025 RMK AO2 SLP262
                 T10611094 =
2017-12-17 04:54 METAR KDSV 170954Z AUTO 00000KT 10SM OVC021 M06/M09 A3023 RMK AO2 SLP255
                 T10611089 =
2017-12-17 03:54 METAR KDSV 170854Z AUTO 00000KT 10SM OVC020 M06/M08 A3024 RMK AO2 SLP260
                 T10561083 50014 =
2017-12-17 02:54 METAR KDSV 170754Z AUTO 00000KT 10SM OVC022 M06/M08 A3025 RMK AO2 SLP261
                 T10611078 =
2017-12-17 01:54 METAR KDSV 170654Z AUTO 00000KT 10SM OVC024 M06/M08 A3021 RMK AO2 SLP248
                 T10561078 =
2017-12-17 00:54 METAR KDSV 170554Z AUTO 00000KT 10SM OVC023 M06/M08 A3020 RMK AO2 SLP246
                 T10561078 11050 21061 51004 =
2017-12-16 23:54 METAR KDSV 170454Z AUTO 00000KT 10SM OVC023 M06/M08 A3020 RMK AO2 SLP246
                 T10561078 410331061 =
2017-12-16 22:54 METAR KDSV 170354Z AUTO 00000KT 10SM OVC021 M06/M08 A3019 RMK AO2 SLP243
                 T10561083 =
2017-12-16 21:54 METAR KDSV 170254Z AUTO 00000KT 10SM OVC021 M06/M08 A3019 RMK AO2 SLP242
                 T10561083 51015 =
2017-12-16 20:54 METAR KDSV 170154Z AUTO 00000KT 10SM OVC023 M06/M08 A3018 RMK AO2 SLP239
                 T10561078 =
2017-12-16 19:54 METAR KDSV 170054Z AUTO 34004KT 10SM OVC023 M06/M08 A3017 RMK AO2 SLP236
                 T10561078 =
2017-12-16 18:54 METAR KDSV 162354Z AUTO 33005KT 10SM OVC023 M05/M08 A3014 RMK AO2 SLP226 60000
                 T10501078 11033 21050 51035 =
2017-12-16 17:54 METAR KDSV 162254Z AUTO 30005KT 10SM OVC020 M04/M08 A3012 RMK AO2 SNE18 SLP218
                 P0000 T10441078 =
2017-12-16 16:54 METAR KDSV 162154Z AUTO 31007KT 5SM -SN BR FEW010 OVC018 M04/M07 A3008 RMK AO2
                 SLP203 P0000 T10441067 =
2017-12-16 16:42 METAR KDSV 162142Z AUTO 29005KT 3SM -SN BR SCT009 BKN012 OVC020 M04/M07 A3007
                 RMK AO2 P0000 T10441067 =
2017-12-16 16:34 METAR KDSV 162134Z AUTO 31004KT 2SM -SN BR SCT009 SCT013 OVC022 M04/M07 A3006
                 RMK AO2 P0000 T10441067 =
2017-12-16 16:23 METAR KDSV 162123Z AUTO 32007KT 1 1/2SM -SN BR SCT009 BKN012 OVC023 M04/M06
                 A3006 RMK AO2 P0000 T10391061 =
2017-12-16 15:54 METAR KDSV 162054Z AUTO 07003KT 1SM -SN BR OVC024 M04/M06 A3004 RMK AO2 SLP189
                 P0000 60000 T10391061 53024 =
2017-12-16 15:34 METAR KDSV 162034Z AUTO 00000KT 1 1/2SM -SN BR BKN027 OVC037 M04/M06 A3003 RMK
                 AO2 P0000 T10391061 =
2017-12-16 14:54 METAR KDSV 161954Z AUTO 31005KT 2SM -SN BKN023 OVC041 M03/M06 A3001 RMK AO2
                 SLP179 P0000 T10331061 =

Support USWX by starting your Amazon purchase here.